Soller, Spain
Current Conditions -  °F | °C
As of 3:30 PM on Sunday 23 Nov 2014 (Local Time) from LEPA Reporting Station
Clear Clear  
Wind Chill: 77°   Ceiling: Unl
Heat Index: 78°   Visibility: 6mi
Dew Point: 50°   Wind: 2mph
Humidity: 39%   Direction: NA
Pressure: 30"   Gusts: NA
Location:  39.77°N, 2.72°E
Report Text: LEPA 231430Z VRB02KT CAVOK 25/10 Q1016 NOSIG
Loading
Personal Weather Stations






























Interactive Weather Map New forecast layout! Learn more

10-Day Weather Forecast

Advertisements
Track Severe Weather on mobile